Time;durP1;ratioP1;P1;durP2;ratioP2;P2;SDS_P1;SDS_P2;PMS_P1;PMS_P2;Temp;Humidity;BMP_temperature;BMP_pressure;BME280_temperature;BME280_humidity;BME280_pressure;Samples;Min_cycle;Max_cycle;Signal;HPM_P1;HPM_P2
2023/10/28 00:01:12;;;;;;;26.77;15.65;;;10.20;99.90;;;;;;4987939;28;20490;-57
2023/10/28 00:03:38;;;;;;;27.42;15.90;;;10.20;99.90;;;;;;5027157;28;20510;-57
2023/10/28 00:06:04;;;;;;;25.02;14.63;;;10.20;99.90;;;;;;5023988;28;20559;-58
2023/10/28 00:08:30;;;;;;;23.95;13.82;;;10.20;99.90;;;;;;5018960;28;20037;-57
2023/10/28 00:10:56;;;;;;;24.02;14.32;;;10.20;99.90;;;;;;4992647;28;20468;-56
2023/10/28 00:13:22;;;;;;;23.13;13.45;;;10.20;99.90;;;;;;5018869;28;20580;-58
2023/10/28 00:15:48;;;;;;;26.23;14.95;;;10.20;99.90;;;;;;5018502;28;20052;-57
2023/10/28 00:18:14;;;;;;;25.90;14.40;;;10.20;99.90;;;;;;5027208;28;20504;-56
2023/10/28 00:20:41;;;;;;;26.27;15.05;;;10.20;99.90;;;;;;5022036;28;20135;-57
2023/10/28 00:23:07;;;;;;;25.88;15.52;;;10.20;99.90;;;;;;5013692;28;20480;-58
2023/10/28 00:25:33;;;;;;;25.55;15.25;;;10.20;99.90;;;;;;5018162;28;20049;-58
2023/10/28 00:27:59;;;;;;;27.17;15.32;;;10.20;99.90;;;;;;4999507;28;20037;-57
2023/10/28 00:30:26;;;;;;;26.63;15.73;;;10.20;99.90;;;;;;5007089;28;20122;-58
2023/10/28 00:32:58;;;;;;;26.55;15.10;;;10.20;99.90;;;;;;5020277;28;20053;-57
2023/10/28 00:35:25;;;;;;;27.70;15.27;;;10.20;99.90;;;;;;5016334;28;20102;-57
2023/10/28 00:37:50;;;;;;;29.85;15.25;;;10.20;99.90;;;;;;5024005;28;20048;-57
2023/10/28 00:40:17;;;;;;;28.17;16.40;;;10.20;99.90;;;;;;5001397;28;20033;-57
2023/10/28 00:42:45;;;;;;;30.08;15.85;;;10.20;99.90;;;;;;5025865;28;20064;-58
2023/10/28 00:45:13;;;;;;;32.05;16.92;;;10.20;99.90;;;;;;5007982;28;20045;-56
2023/10/28 00:47:41;;;;;;;30.42;16.65;;;10.20;99.90;;;;;;5025575;28;20041;-58
2023/10/28 00:50:10;;;;;;;29.70;16.63;;;10.20;99.90;;;;;;5021246;28;20402;-57
2023/10/28 00:52:41;;;;;;;32.25;18.20;;;10.20;99.90;;;;;;4994136;28;20522;-58
2023/10/28 00:55:11;;;;;;;32.85;17.77;;;10.20;99.90;;;;;;5027900;28;20558;-57
2023/10/28 00:57:41;;;;;;;33.97;18.35;;;10.20;99.90;;;;;;5024734;28;20072;-58
2023/10/28 01:00:08;;;;;;;34.80;18.65;;;10.20;99.90;;;;;;5020006;28;21991;-58
2023/10/28 01:02:39;;;;;;;33.33;18.58;;;10.30;99.90;;;;;;5021355;28;20040;-57
2023/10/28 01:05:09;;;;;;;36.58;18.88;;;10.20;99.90;;;;;;5023269;28;20053;-58
2023/10/28 01:07:36;;;;;;;34.70;18.95;;;10.30;99.90;;;;;;5029567;28;20380;-57
2023/10/28 01:10:03;;;;;;;38.58;20.08;;;10.30;99.90;;;;;;5031673;28;20246;-57
2023/10/28 01:12:29;;;;;;;38.25;20.33;;;10.30;99.90;;;;;;5033590;28;20044;-57
2023/10/28 01:14:56;;;;;;;40.20;20.27;;;10.30;99.90;;;;;;5026037;28;20041;-57
2023/10/28 01:17:25;;;;;;;39.08;20.27;;;10.30;99.90;;;;;;5023581;28;20048;-56
2023/10/28 01:19:54;;;;;;;40.40;20.50;;;10.30;99.90;;;;;;5026944;28;20049;-57
2023/10/28 01:22:21;;;;;;;42.30;21.65;;;10.30;99.90;;;;;;5028526;28;20051;-58
2023/10/28 01:24:47;;;;;;;40.85;21.48;;;10.30;99.90;;;;;;5031151;28;20549;-57
2023/10/28 01:27:13;;;;;;;42.95;22.42;;;10.30;99.90;;;;;;5015551;28;20075;-56
2023/10/28 01:29:38;;;;;;;45.63;23.77;;;10.30;99.90;;;;;;5027227;28;20738;-57
2023/10/28 01:32:04;;;;;;;45.58;23.70;;;10.40;99.90;;;;;;5024579;28;20123;-58
2023/10/28 01:34:30;;;;;;;45.63;23.67;;;10.40;99.90;;;;;;5022031;28;20484;-58
2023/10/28 01:36:57;;;;;;;46.30;24.15;;;10.30;99.90;;;;;;5026438;28;20102;-56
2023/10/28 01:39:22;;;;;;;41.42;22.45;;;10.30;99.90;;;;;;5010385;28;20056;-58
2023/10/28 01:41:49;;;;;;;44.05;22.50;;;10.30;99.90;;;;;;5026446;28;20396;-58
2023/10/28 01:44:16;;;;;;;47.63;24.27;;;10.40;99.90;;;;;;5016293;28;20057;-57
2023/10/28 01:46:42;;;;;;;46.22;23.75;;;10.40;99.90;;;;;;5019365;28;20110;-58
2023/10/28 01:49:08;;;;;;;44.00;23.00;;;10.40;99.90;;;;;;5017431;28;20040;-57
2023/10/28 01:51:34;;;;;;;48.88;23.63;;;10.40;99.90;;;;;;5022423;28;20098;-57
2023/10/28 01:54:00;;;;;;;45.53;24.25;;;10.40;99.90;;;;;;5019709;28;20045;-57
2023/10/28 01:56:28;;;;;;;45.90;22.63;;;10.40;99.90;;;;;;5018788;28;20148;-57
2023/10/28 01:58:54;;;;;;;48.28;24.92;;;10.40;99.90;;;;;;5022909;28;20084;-59
2023/10/28 02:01:23;;;;;;;45.53;24.17;;;10.40;99.90;;;;;;4988447;28;20045;-56
2023/10/28 02:03:50;;;;;;;47.83;24.63;;;10.40;99.90;;;;;;5023042;28;20041;-59
2023/10/28 02:06:15;;;;;;;46.50;23.98;;;10.40;99.90;;;;;;5020922;28;20534;-57
2023/10/28 02:08:42;;;;;;;46.65;24.90;;;10.40;99.90;;;;;;5017390;28;20033;-57
2023/10/28 02:11:08;;;;;;;50.45;24.50;;;10.40;99.90;;;;;;5000921;28;20048;-57
2023/10/28 02:13:35;;;;;;;54.22;25.75;;;10.40;99.90;;;;;;5003130;28;20048;-56
2023/10/28 02:16:01;;;;;;;46.45;24.55;;;10.40;99.90;;;;;;5022020;28;20053;-57
2023/10/28 02:18:27;;;;;;;48.25;24.90;;;10.40;99.90;;;;;;5006514;28;20090;-58
2023/10/28 02:20:54;;;;;;;47.63;23.75;;;10.40;99.90;;;;;;5028366;28;20037;-58
2023/10/28 02:23:20;;;;;;;51.70;24.42;;;10.40;99.90;;;;;;5025514;28;20424;-58
2023/10/28 02:25:46;;;;;;;49.33;25.23;;;10.30;99.90;;;;;;5024791;28;20044;-58
2023/10/28 02:28:13;;;;;;;48.92;24.65;;;10.40;99.90;;;;;;5025742;28;20571;-59
2023/10/28 02:30:40;;;;;;;53.17;25.90;;;10.30;99.90;;;;;;5023483;28;20036;-57
2023/10/28 02:33:06;;;;;;;49.83;24.15;;;10.30;99.90;;;;;;5017852;28;20045;-59
2023/10/28 02:35:33;;;;;;;46.25;24.67;;;10.30;99.90;;;;;;4992602;28;20053;-56
2023/10/28 02:37:59;;;;;;;45.00;24.48;;;10.30;99.90;;;;;;5008109;28;20088;-57
2023/10/28 02:40:24;;;;;;;45.33;23.95;;;10.30;99.90;;;;;;5011070;28;20036;-57
2023/10/28 02:42:50;;;;;;;54.38;24.17;;;10.30;99.90;;;;;;5024359;28;20553;-57
2023/10/28 02:45:16;;;;;;;47.17;24.10;;;10.20;99.90;;;;;;5021214;28;20046;-56
2023/10/28 02:47:42;;;;;;;48.85;23.73;;;10.20;99.90;;;;;;5020307;28;20033;-57
2023/10/28 02:50:09;;;;;;;44.05;24.20;;;10.20;99.90;;;;;;5023340;28;20029;-57
2023/10/28 02:52:35;;;;;;;44.33;23.80;;;10.20;99.90;;;;;;5024337;28;22233;-57
2023/10/28 02:55:02;;;;;;;48.50;24.88;;;10.20;99.90;;;;;;5027174;28;20491;-57
2023/10/28 02:57:28;;;;;;;46.05;25.27;;;10.20;99.90;;;;;;5028085;28;20049;-57
2023/10/28 02:59:54;;;;;;;44.78;23.80;;;10.20;99.90;;;;;;5024464;28;20413;-57
2023/10/28 03:02:19;;;;;;;48.35;24.63;;;10.10;99.90;;;;;;5030007;28;20484;-57
2023/10/28 03:04:45;;;;;;;51.00;24.83;;;10.10;99.90;;;;;;5003912;28;20041;-57
2023/10/28 03:07:11;;;;;;;46.40;23.77;;;10.10;99.90;;;;;;5003510;28;20037;-57
2023/10/28 03:09:36;;;;;;;47.42;24.88;;;10.10;99.90;;;;;;5027867;28;20041;-57
2023/10/28 03:12:03;;;;;;;51.17;23.70;;;10.10;99.90;;;;;;5031316;28;20376;-58
2023/10/28 03:14:28;;;;;;;43.97;24.80;;;10.00;99.90;;;;;;5018604;28;20387;-57
2023/10/28 03:16:54;;;;;;;43.88;23.55;;;10.10;99.90;;;;;;5013155;28;20045;-58
2023/10/28 03:19:20;;;;;;;45.00;25.27;;;10.10;99.90;;;;;;5005745;28;20044;-58
2023/10/28 03:21:45;;;;;;;48.13;23.85;;;10.00;99.90;;;;;;5031156;28;20037;-57
2023/10/28 03:24:12;;;;;;;41.15;22.30;;;10.00;99.90;;;;;;5024354;28;20045;-57
2023/10/28 03:26:38;;;;;;;37.85;21.05;;;10.00;99.90;;;;;;5028864;28;20095;-57
2023/10/28 03:29:04;;;;;;;41.40;22.05;;;10.00;99.90;;;;;;5026386;28;20043;-57
2023/10/28 03:31:30;;;;;;;40.58;21.65;;;10.00;99.90;;;;;;5027181;28;20041;-56
2023/10/28 03:33:55;;;;;;;41.15;20.77;;;10.00;99.90;;;;;;4989301;28;20418;-58
2023/10/28 03:36:21;;;;;;;41.60;21.48;;;10.00;99.90;;;;;;5023431;28;20122;-59
2023/10/28 03:38:47;;;;;;;37.33;19.75;;;10.00;99.90;;;;;;5019066;28;20048;-56
2023/10/28 03:41:13;;;;;;;42.50;20.65;;;10.00;99.90;;;;;;4993211;28;20421;-57
2023/10/28 03:43:41;;;;;;;36.75;19.33;;;10.00;99.90;;;;;;5022394;28;20045;-56
2023/10/28 03:46:07;;;;;;;35.20;20.05;;;10.00;99.90;;;;;;5010689;28;20032;-57
2023/10/28 03:48:33;;;;;;;39.95;20.17;;;9.90;99.90;;;;;;5024021;28;20126;-58
2023/10/28 03:51:03;;;;;;;37.20;20.70;;;9.90;99.90;;;;;;5010307;28;20041;-57
2023/10/28 03:53:29;;;;;;;35.83;19.20;;;9.90;99.90;;;;;;5022322;28;20056;-58
2023/10/28 03:55:56;;;;;;;35.45;19.88;;;9.90;99.90;;;;;;5003875;28;20099;-59
2023/10/28 03:58:22;;;;;;;38.40;19.33;;;9.90;99.90;;;;;;5006804;28;20086;-56
2023/10/28 04:00:53;;;;;;;36.50;19.25;;;9.90;99.90;;;;;;5022393;28;20064;-58
2023/10/28 04:03:23;;;;;;;33.10;19.25;;;9.80;99.90;;;;;;5021295;28;20158;-58
2023/10/28 04:05:49;;;;;;;34.60;19.40;;;9.80;99.90;;;;;;5026250;28;20453;-57
2023/10/28 04:08:15;;;;;;;36.15;19.70;;;9.80;99.90;;;;;;5022858;28;20441;-57
2023/10/28 04:10:41;;;;;;;37.20;19.63;;;9.80;99.90;;;;;;5021864;28;20044;-59
2023/10/28 04:13:07;;;;;;;35.92;19.30;;;9.80;99.90;;;;;;5001516;28;20555;-58
2023/10/28 04:15:35;;;;;;;32.30;19.23;;;9.80;99.90;;;;;;5022108;28;20480;-58
2023/10/28 04:18:01;;;;;;;36.58;19.25;;;9.80;99.90;;;;;;5006997;28;20052;-58
2023/10/28 04:20:27;;;;;;;34.67;19.02;;;9.80;99.90;;;;;;4984748;28;20179;-58
2023/10/28 04:22:53;;;;;;;34.28;19.17;;;9.80;99.90;;;;;;5021033;28;20049;-56
2023/10/28 04:25:19;;;;;;;36.28;20.23;;;9.80;99.90;;;;;;5028849;28;20065;-57
2023/10/28 04:27:44;;;;;;;39.05;19.75;;;9.80;99.90;;;;;;5021038;28;20037;-59
2023/10/28 04:30:10;;;;;;;35.38;18.55;;;9.70;99.90;;;;;;5008389;28;20464;-58
2023/10/28 04:32:39;;;;;;;38.17;18.85;;;9.70;99.90;;;;;;5019621;28;20554;-57
2023/10/28 04:35:06;;;;;;;37.53;19.30;;;9.70;99.90;;;;;;5029121;28;20236;-55
2023/10/28 04:37:32;;;;;;;34.90;17.58;;;9.70;99.90;;;;;;5022856;28;20127;-57
2023/10/28 04:39:58;;;;;;;34.95;18.52;;;9.70;99.90;;;;;;5028723;28;20044;-58
2023/10/28 04:42:24;;;;;;;39.50;19.20;;;9.70;99.90;;;;;;5025827;28;21461;-58
2023/10/28 04:44:49;;;;;;;30.58;18.10;;;9.70;99.90;;;;;;5034147;28;20431;-57
2023/10/28 04:47:15;;;;;;;32.78;17.75;;;9.60;99.90;;;;;;5029199;28;20033;-57
2023/10/28 04:49:42;;;;;;;34.40;18.23;;;9.70;99.90;;;;;;5025415;28;20077;-58
2023/10/28 04:52:08;;;;;;;40.15;19.25;;;9.70;99.90;;;;;;5029244;28;20102;-57
2023/10/28 04:54:40;;;;;;;42.72;20.17;;;9.70;99.90;;;;;;5034017;28;20049;-58
2023/10/28 04:57:06;;;;;;;33.65;19.23;;;9.70;99.90;;;;;;5031022;28;20053;-58
2023/10/28 04:59:31;;;;;;;38.45;20.02;;;9.70;99.90;;;;;;5013767;28;20051;-56
2023/10/28 05:01:57;;;;;;;39.40;19.70;;;9.70;99.90;;;;;;5029739;28;20064;-57
2023/10/28 05:04:24;;;;;;;37.33;19.35;;;9.70;99.90;;;;;;5030611;28;20037;-58
2023/10/28 05:06:51;;;;;;;36.08;18.80;;;9.70;99.90;;;;;;5036148;28;20044;-58
2023/10/28 05:09:20;;;;;;;39.22;19.50;;;9.70;99.90;;;;;;5035903;28;20033;-56
2023/10/28 05:11:47;;;;;;;33.97;19.10;;;9.70;99.90;;;;;;5028292;28;20614;-57
2023/10/28 05:14:14;;;;;;;35.05;19.33;;;9.70;99.90;;;;;;5034621;28;20037;-58
2023/10/28 05:16:39;;;;;;;37.88;20.13;;;9.70;99.90;;;;;;5037620;28;21399;-59
2023/10/28 05:19:06;;;;;;;32.30;19.30;;;9.70;99.90;;;;;;5032860;28;20537;-58
2023/10/28 05:21:32;;;;;;;41.80;20.10;;;9.70;99.90;;;;;;5032002;28;20617;-58
2023/10/28 05:23:58;;;;;;;36.53;20.63;;;9.70;99.90;;;;;;5024916;28;20044;-57
2023/10/28 05:26:23;;;;;;;38.35;20.00;;;9.70;99.90;;;;;;5034414;28;20076;-57
2023/10/28 05:28:51;;;;;;;45.72;20.23;;;9.70;99.90;;;;;;5031698;28;20490;-56
2023/10/28 05:31:17;;;;;;;37.97;20.70;;;9.80;99.90;;;;;;5004377;28;20044;-58
2023/10/28 05:33:43;;;;;;;40.80;20.42;;;9.80;99.90;;;;;;5009090;28;20120;-57
2023/10/28 05:36:08;;;;;;;43.17;19.95;;;9.80;99.90;;;;;;5012717;28;20041;-57
2023/10/28 05:38:34;;;;;;;40.72;20.63;;;9.80;99.90;;;;;;5029940;28;20056;-58
2023/10/28 05:41:00;;;;;;;41.17;20.45;;;9.80;99.90;;;;;;5033054;28;20045;-58
2023/10/28 05:43:25;;;;;;;37.20;20.73;;;9.80;99.90;;;;;;5028127;28;20064;-57
2023/10/28 05:45:51;;;;;;;40.63;19.45;;;9.80;99.90;;;;;;5031644;28;20080;-58
2023/10/28 05:48:17;;;;;;;45.80;20.48;;;9.80;99.90;;;;;;5011311;28;20118;-57
2023/10/28 05:50:42;;;;;;;44.35;21.60;;;9.80;99.90;;;;;;5034461;28;20664;-56
2023/10/28 05:53:08;;;;;;;39.97;20.63;;;9.90;99.90;;;;;;5029899;28;20045;-57
2023/10/28 05:55:34;;;;;;;36.58;19.60;;;9.80;99.90;;;;;;5031706;28;20161;-58
2023/10/28 05:58:00;;;;;;;37.00;19.73;;;9.90;99.90;;;;;;5032161;28;20051;-57
2023/10/28 06:00:28;;;;;;;41.40;19.60;;;9.90;99.90;;;;;;5031400;28;20072;-57
2023/10/28 06:02:54;;;;;;;39.03;20.25;;;9.90;99.90;;;;;;5032316;28;20041;-56
2023/10/28 06:05:20;;;;;;;48.95;20.92;;;9.80;99.90;;;;;;5036864;28;20071;-57
2023/10/28 06:07:49;;;;;;;44.08;20.42;;;9.90;99.90;;;;;;5023049;28;20049;-57
2023/10/28 06:10:15;;;;;;;44.17;20.35;;;9.90;99.90;;;;;;5041635;28;20048;-57
2023/10/28 06:12:41;;;;;;;43.45;20.85;;;9.90;99.90;;;;;;5025578;28;20033;-57
2023/10/28 06:15:07;;;;;;;44.92;20.23;;;9.90;99.90;;;;;;5041321;28;20044;-57
2023/10/28 06:17:35;;;;;;;42.13;19.92;;;9.90;99.90;;;;;;5040790;28;20045;-57
2023/10/28 06:20:01;;;;;;;45.55;20.58;;;9.90;99.90;;;;;;5022960;28;20053;-58
2023/10/28 06:22:26;;;;;;;41.58;20.60;;;9.90;99.90;;;;;;5019349;28;20057;-57
2023/10/28 06:24:54;;;;;;;45.22;20.27;;;9.90;99.90;;;;;;5046594;28;20064;-57
2023/10/28 06:27:22;;;;;;;39.05;20.08;;;9.90;99.90;;;;;;5042420;28;21152;-57
2023/10/28 06:29:47;;;;;;;33.78;19.67;;;9.90;99.90;;;;;;5031625;28;20127;-57
2023/10/28 06:32:13;;;;;;;37.45;19.35;;;9.90;99.90;;;;;;5032121;28;20085;-58
2023/10/28 06:34:39;;;;;;;42.80;18.95;;;9.90;99.90;;;;;;5036988;28;20094;-58
2023/10/28 06:37:04;;;;;;;47.53;20.45;;;9.90;99.90;;;;;;5034766;28;20087;-55
2023/10/28 06:39:34;;;;;;;35.60;19.15;;;10.00;99.90;;;;;;5028118;28;20571;-58
2023/10/28 06:42:01;;;;;;;43.40;19.00;;;10.00;99.90;;;;;;5033879;28;20503;-56
2023/10/28 06:44:27;;;;;;;40.55;18.58;;;10.00;99.90;;;;;;5028999;28;20915;-56
2023/10/28 06:46:53;;;;;;;37.45;19.08;;;10.00;99.90;;;;;;5032685;28;20052;-57
2023/10/28 06:49:19;;;;;;;32.08;18.27;;;10.00;99.90;;;;;;5035839;28;20029;-58
2023/10/28 06:51:45;;;;;;;38.05;18.83;;;10.00;99.90;;;;;;5025633;28;20138;-58
2023/10/28 06:54:11;;;;;;;39.20;17.98;;;10.00;99.90;;;;;;5011921;28;20407;-57
2023/10/28 06:56:37;;;;;;;37.35;17.85;;;10.10;99.90;;;;;;4998503;28;20053;-58
2023/10/28 06:59:02;;;;;;;34.78;17.30;;;10.10;99.90;;;;;;5016376;28;20048;-58
2023/10/28 07:01:28;;;;;;;33.42;17.77;;;10.00;99.90;;;;;;5019924;28;20041;-58
2023/10/28 07:03:54;;;;;;;33.92;17.08;;;10.10;99.90;;;;;;5023584;28;20438;-58
2023/10/28 07:06:20;;;;;;;38.78;17.00;;;10.10;99.90;;;;;;4998840;28;20163;-57
2023/10/28 07:08:46;;;;;;;35.40;16.83;;;10.10;99.90;;;;;;5026120;28;20041;-57
2023/10/28 07:11:13;;;;;;;28.00;15.82;;;10.20;99.90;;;;;;5025355;28;20554;-59
2023/10/28 07:13:39;;;;;;;28.58;14.93;;;10.10;99.90;;;;;;5025192;28;20047;-58
2023/10/28 07:16:06;;;;;;;26.45;14.43;;;10.20;99.90;;;;;;5008738;28;20123;-58
2023/10/28 07:18:32;;;;;;;24.90;14.35;;;10.20;99.90;;;;;;5028135;28;21974;-58
2023/10/28 07:21:00;;;;;;;30.08;15.43;;;10.20;99.90;;;;;;5028528;28;20447;-58
2023/10/28 07:23:30;;;;;;;28.67;15.50;;;10.20;99.90;;;;;;5016572;28;20056;-56
2023/10/28 07:25:58;;;;;;;27.85;14.80;;;10.20;99.90;;;;;;5024785;28;20056;-56
2023/10/28 07:28:24;;;;;;;26.70;14.63;;;10.20;99.90;;;;;;5028126;28;20483;-57
2023/10/28 07:30:51;;;;;;;26.60;13.77;;;10.20;99.90;;;;;;4994819;28;20924;-58
2023/10/28 07:33:21;;;;;;;29.02;13.45;;;10.20;99.90;;;;;;5026311;28;20044;-59
2023/10/28 07:35:50;;;;;;;22.13;12.13;;;10.30;99.90;;;;;;5025322;28;20076;-58
2023/10/28 07:38:17;;;;;;;21.13;11.55;;;10.30;99.90;;;;;;5003573;28;20111;-56
2023/10/28 07:40:47;;;;;;;24.60;11.93;;;10.30;99.90;;;;;;5022783;28;20049;-58
2023/10/28 07:43:13;;;;;;;23.60;10.70;;;10.30;99.90;;;;;;5019343;28;20048;-58
2023/10/28 07:45:39;;;;;;;17.98;10.38;;;10.40;99.90;;;;;;5023314;28;20049;-57
2023/10/28 07:48:06;;;;;;;20.00;10.98;;;10.40;99.90;;;;;;5026464;28;20060;-58
2023/10/28 07:50:33;;;;;;;20.85;9.90;;;10.50;99.90;;;;;;5023730;28;20075;-58
2023/10/28 07:52:59;;;;;;;16.58;9.73;;;10.40;99.90;;;;;;5027323;28;20051;-58
2023/10/28 07:55:25;;;;;;;17.80;9.80;;;10.40;99.90;;;;;;5024392;28;20419;-58
2023/10/28 07:57:51;;;;;;;17.17;9.48;;;10.40;99.90;;;;;;5020367;28;20139;-57
2023/10/28 08:00:16;;;;;;;14.13;9.45;;;10.50;99.90;;;;;;5023765;28;20511;-58
2023/10/28 08:02:46;;;;;;;16.95;9.52;;;10.50;99.90;;;;;;5025709;28;20052;-57
2023/10/28 08:05:12;;;;;;;17.30;8.98;;;10.60;99.90;;;;;;5030033;28;20048;-58
2023/10/28 08:07:38;;;;;;;12.63;7.70;;;10.60;99.90;;;;;;5029114;28;20050;-58
2023/10/28 08:10:05;;;;;;;13.52;7.82;;;10.60;99.90;;;;;;5007931;28;20040;-57
2023/10/28 08:12:31;;;;;;;14.10;7.45;;;10.60;99.90;;;;;;5020911;28;20155;-57
2023/10/28 08:15:00;;;;;;;11.20;8.45;;;10.70;99.90;;;;;;5023493;28;20492;-59
2023/10/28 08:17:25;;;;;;;12.13;7.50;;;10.70;99.90;;;;;;5026225;28;20131;-58
2023/10/28 08:19:51;;;;;;;12.40;7.25;;;10.80;99.90;;;;;;5031287;28;20501;-57
2023/10/28 08:22:17;;;;;;;12.70;7.60;;;10.80;99.90;;;;;;5009998;28;20064;-56
2023/10/28 08:24:42;;;;;;;14.32;7.60;;;10.90;99.90;;;;;;5018854;28;20037;-58
2023/10/28 08:27:08;;;;;;;11.60;7.22;;;10.90;99.90;;;;;;5000634;28;20086;-57
2023/10/28 08:29:34;;;;;;;13.88;7.25;;;11.00;99.90;;;;;;5025542;28;20067;-58
2023/10/28 08:32:00;;;;;;;10.38;6.53;;;11.00;99.90;;;;;;5023062;28;20041;-58
2023/10/28 08:34:26;;;;;;;9.18;6.55;;;11.00;99.90;;;;;;5021438;28;20039;-57
2023/10/28 08:36:55;;;;;;;10.60;6.70;;;11.00;99.90;;;;;;5013526;28;20045;-56
2023/10/28 08:39:20;;;;;;;14.82;6.32;;;11.00;99.90;;;;;;5022762;28;20041;-58
2023/10/28 08:41:47;;;;;;;11.30;6.53;;;11.00;99.90;;;;;;5031694;28;20417;-58
2023/10/28 08:44:17;;;;;;;9.50;6.40;;;11.00;99.90;;;;;;5021551;28;20134;-55
2023/10/28 08:46:44;;;;;;;11.38;6.55;;;11.00;99.90;;;;;;5020394;28;20083;-57
2023/10/28 08:49:14;;;;;;;11.07;6.30;;;11.00;99.90;;;;;;5015375;28;20033;-56
2023/10/28 08:51:48;;;;;;;12.13;6.22;;;11.00;99.90;;;;;;5017528;28;20385;-58
2023/10/28 08:54:16;;;;;;;10.45;6.20;;;11.00;99.90;;;;;;5002042;28;20050;-57
2023/10/28 08:56:43;;;;;;;10.68;6.47;;;11.00;99.90;;;;;;5027979;28;20041;-56
2023/10/28 08:59:10;;;;;;;10.15;6.50;;;11.00;99.90;;;;;;5020968;28;20080;-57
2023/10/28 09:01:36;;;;;;;10.82;5.82;;;11.00;99.90;;;;;;5020704;28;20053;-56
2023/10/28 09:04:05;;;;;;;11.48;6.30;;;11.00;99.90;;;;;;5003103;28;20045;-57
2023/10/28 09:06:31;;;;;;;12.40;6.65;;;11.10;99.90;;;;;;5020888;28;20477;-58
2023/10/28 09:08:58;;;;;;;12.68;6.60;;;11.10;99.90;;;;;;5006904;28;20044;-57
2023/10/28 09:11:25;;;;;;;14.00;6.78;;;11.10;99.90;;;;;;5018652;28;20573;-58
2023/10/28 09:13:51;;;;;;;10.75;6.65;;;11.10;99.90;;;;;;5030790;28;20098;-57
2023/10/28 09:16:17;;;;;;;12.98;6.35;;;11.20;99.90;;;;;;4994247;28;20037;-58
2023/10/28 09:18:44;;;;;;;9.60;6.00;;;11.20;99.90;;;;;;5013984;28;20475;-57
2023/10/28 09:21:11;;;;;;;9.38;6.00;;;11.20;99.90;;;;;;5030482;28;20049;-57
2023/10/28 09:23:38;;;;;;;8.77;5.95;;;11.20;99.90;;;;;;5000090;28;20041;-58
2023/10/28 09:26:08;;;;;;;10.00;6.63;;;11.20;99.90;;;;;;5022018;28;20048;-57
2023/10/28 09:28:34;;;;;;;10.45;6.78;;;11.20;99.90;;;;;;5025523;28;20464;-58
2023/10/28 09:31:00;;;;;;;12.52;6.47;;;11.20;99.90;;;;;;5002952;28;20109;-58
2023/10/28 09:33:30;;;;;;;11.88;5.70;;;11.20;99.90;;;;;;5028249;28;20412;-57
2023/10/28 09:35:57;;;;;;;11.52;6.07;;;11.30;99.90;;;;;;5024964;28;20049;-57
2023/10/28 09:38:23;;;;;;;7.40;5.30;;;11.30;99.90;;;;;;5019466;28;20079;-57
2023/10/28 09:40:50;;;;;;;11.18;5.63;;;11.30;99.90;;;;;;5024957;28;20043;-57
2023/10/28 09:43:16;;;;;;;9.98;5.90;;;11.30;99.90;;;;;;4983161;28;20059;-57
2023/10/28 09:45:51;;;;;;;8.88;5.47;;;11.40;99.90;;;;;;5006161;28;20041;-57
2023/10/28 09:48:18;;;;;;;10.15;5.35;;;11.40;99.90;;;;;;5014046;28;20037;-58
2023/10/28 09:50:50;;;;;;;9.07;5.22;;;11.50;99.90;;;;;;5027110;28;20041;-58
2023/10/28 09:53:37;;;;;;;9.23;5.50;;;11.50;99.90;;;;;;5044994;28;20045;-58
2023/10/28 09:56:04;;;;;;;8.80;4.95;;;11.60;99.90;;;;;;5042036;28;20147;-57
2023/10/28 09:59:00;;;;;;;11.45;5.53;;;11.60;99.90;;;;;;5039063;28;20080;-57
2023/10/28 10:01:42;;;;;;;9.15;5.15;;;11.60;99.90;;;;;;5040951;28;20041;-58
2023/10/28 10:04:31;;;;;;;9.95;5.20;;;11.70;99.90;;;;;;5045649;28;20147;-56
2023/10/28 10:06:57;;;;;;;8.27;4.40;;;11.70;99.90;;;;;;5024068;28;20500;-58
2023/10/28 10:09:23;;;;;;;8.68;4.88;;;11.60;99.90;;;;;;5022716;28;20045;-59
2023/10/28 10:11:52;;;;;;;10.35;4.60;;;11.70;99.90;;;;;;5020397;28;20750;-58
2023/10/28 10:14:21;;;;;;;10.02;5.45;;;11.80;99.90;;;;;;5041654;28;20126;-58
2023/10/28 10:16:59;;;;;;;8.07;5.00;;;11.80;99.90;;;;;;5040869;28;20604;-58
2023/10/28 10:19:33;;;;;;;10.00;4.97;;;11.80;99.90;;;;;;5039427;28;20045;-56
2023/10/28 10:22:08;;;;;;;11.32;5.32;;;11.80;99.90;;;;;;5021519;28;20049;-58
2023/10/28 10:24:34;;;;;;;14.60;5.32;;;11.80;99.90;;;;;;5034272;28;20071;-57
2023/10/28 10:27:01;;;;;;;9.50;4.70;;;11.80;99.90;;;;;;5027489;28;20045;-58
2023/10/28 10:29:38;;;;;;;8.02;4.78;;;11.80;99.90;;;;;;5043919;28;20049;-57
2023/10/28 10:32:17;;;;;;;7.88;4.72;;;11.80;99.90;;;;;;5023510;28;20119;-57
2023/10/28 10:34:45;;;;;;;10.45;4.47;;;11.80;99.90;;;;;;5043568;28;20052;-57
2023/10/28 10:37:24;;;;;;;8.80;4.13;;;11.80;99.90;;;;;;5038440;28;20452;-57
2023/10/28 10:39:51;;;;;;;9.52;4.82;;;11.80;99.90;;;;;;5039148;28;20042;-57
2023/10/28 10:42:17;;;;;;;7.82;4.38;;;11.70;99.90;;;;;;5039135;28;20055;-58
2023/10/28 10:44:43;;;;;;;8.95;4.47;;;11.70;99.90;;;;;;5047667;28;20551;-56
2023/10/28 10:47:09;;;;;;;9.27;4.60;;;11.70;99.90;;;;;;5040067;28;20055;-57
2023/10/28 10:49:38;;;;;;;7.60;4.68;;;11.70;99.90;;;;;;5043716;28;20056;-58
2023/10/28 10:52:05;;;;;;;8.77;4.57;;;11.80;99.90;;;;;;5037859;28;20061;-58
2023/10/28 10:54:36;;;;;;;10.13;4.22;;;11.80;99.90;;;;;;5026531;28;20095;-58
2023/10/28 10:57:03;;;;;;;8.75;4.18;;;11.80;99.90;;;;;;5040590;28;20045;-57
2023/10/28 10:59:33;;;;;;;9.85;4.47;;;11.80;99.90;;;;;;5041195;28;20041;-56
2023/10/28 11:02:03;;;;;;;7.78;4.72;;;11.80;99.90;;;;;;5042202;28;20071;-57
2023/10/28 11:04:30;;;;;;;9.18;4.20;;;11.80;99.90;;;;;;5021870;28;20033;-58
2023/10/28 11:06:57;;;;;;;11.07;5.03;;;11.90;99.90;;;;;;5042701;28;20044;-57
2023/10/28 11:09:23;;;;;;;13.23;4.25;;;11.90;99.90;;;;;;5017084;28;20153;-56
2023/10/28 11:11:49;;;;;;;14.45;4.32;;;11.90;99.90;;;;;;5020164;28;20045;-57
2023/10/28 11:14:15;;;;;;;12.73;4.75;;;11.90;99.90;;;;;;5039130;28;20060;-56
2023/10/28 11:16:42;;;;;;;11.02;4.60;;;11.90;99.90;;;;;;5021922;28;20480;-56
2023/10/28 11:19:09;;;;;;;8.10;4.40;;;11.90;99.90;;;;;;5044120;28;20384;-57
2023/10/28 11:21:36;;;;;;;12.68;4.10;;;12.00;99.90;;;;;;5039232;28;20051;-57
2023/10/28 11:24:04;;;;;;;9.88;4.28;;;12.00;99.90;;;;;;5039723;28;20225;-57
2023/10/28 11:26:30;;;;;;;12.43;4.47;;;12.00;99.90;;;;;;5043135;28;20041;-58
2023/10/28 11:29:00;;;;;;;11.65;5.07;;;12.10;99.90;;;;;;5042321;28;20036;-57
2023/10/28 11:31:30;;;;;;;10.90;4.82;;;12.10;99.90;;;;;;5038096;28;20168;-57
2023/10/28 11:33:58;;;;;;;8.80;4.35;;;12.10;99.90;;;;;;5040904;28;20480;-57
2023/10/28 11:36:23;;;;;;;8.65;3.97;;;12.20;99.90;;;;;;5022865;28;20048;-58
2023/10/28 11:38:49;;;;;;;9.85;4.00;;;12.20;99.90;;;;;;5020608;28;20052;-58
2023/10/28 11:41:15;;;;;;;8.15;3.65;;;12.20;99.90;;;;;;5042804;28;20496;-56
2023/10/28 11:43:41;;;;;;;7.22;4.22;;;12.30;99.90;;;;;;5038862;28;20049;-57
2023/10/28 11:46:07;;;;;;;8.00;3.47;;;12.30;99.90;;;;;;5015278;28;20567;-57
2023/10/28 11:48:36;;;;;;;8.15;3.83;;;12.30;99.90;;;;;;5043723;28;20039;-58
2023/10/28 11:51:02;;;;;;;8.15;4.07;;;12.30;99.90;;;;;;5022450;28;20083;-57
2023/10/28 11:53:29;;;;;;;12.00;4.28;;;12.30;99.90;;;;;;5037835;28;20132;-58
2023/10/28 11:55:55;;;;;;;12.23;3.85;;;12.30;99.90;;;;;;5044734;28;20114;-58
2023/10/28 11:58:24;;;;;;;7.00;3.83;;;12.30;99.90;;;;;;5035873;28;20049;-57
2023/10/28 12:00:55;;;;;;;9.63;3.85;;;12.30;99.90;;;;;;5021753;28;20064;-57
2023/10/28 12:03:21;;;;;;;8.32;4.07;;;12.40;99.90;;;;;;5036571;28;20049;-57
2023/10/28 12:05:47;;;;;;;11.00;3.67;;;12.40;99.90;;;;;;5036134;28;20060;-58
2023/10/28 12:08:13;;;;;;;6.60;3.53;;;12.40;99.90;;;;;;5039621;28;20068;-57
2023/10/28 12:10:43;;;;;;;8.50;3.60;;;12.40;99.90;;;;;;5037761;28;20514;-57
2023/10/28 12:13:12;;;;;;;4.97;3.25;;;12.40;99.90;;;;;;5035872;28;20033;-58
2023/10/28 12:15:38;;;;;;;11.38;4.03;;;12.40;99.90;;;;;;5039345;28;20357;-58
2023/10/28 12:18:04;;;;;;;10.95;3.72;;;12.40;99.90;;;;;;5043659;28;20132;-58
2023/10/28 12:20:30;;;;;;;9.95;3.63;;;12.40;99.90;;;;;;5040566;28;20044;-57
2023/10/28 12:22:56;;;;;;;9.00;3.90;;;12.40;99.90;;;;;;5034748;28;20036;-57
2023/10/28 12:25:23;;;;;;;10.82;3.58;;;12.40;99.90;;;;;;5041020;28;20080;-57
2023/10/28 12:27:50;;;;;;;6.93;3.08;;;12.40;99.90;;;;;;5042032;28;20495;-58
2023/10/28 12:30:16;;;;;;;11.20;3.22;;;12.50;99.90;;;;;;5042252;28;20135;-58
2023/10/28 12:32:42;;;;;;;9.18;3.72;;;12.50;99.90;;;;;;5003251;28;20041;-57
2023/10/28 12:35:08;;;;;;;11.50;3.67;;;12.60;99.90;;;;;;5040856;28;20048;-58